Time,TemperatureF,DewpointF,PressureIn,WindDirection,WindDirectionDegrees,WindSpeedMPH,WindSpeedGustMPH,Humidity,HourlyPrecipIn,Conditions,Clouds,dailyrainin,SolarRadiationWatts/m^2,SoftwareType,DateUTC
2014-04-17 00:22:00,33.0,32.0,-100.00,SW,219,2.0,6.0,97,0.00,,,0.03,0.000000,,2014-04-17 06:22:00,
2014-04-17 00:32:00,33.0,32.0,-100.00,SW,219,2.0,6.0,97,0.00,,,0.03,0.000000,,2014-04-17 06:32:00,
2014-04-17 00:42:00,33.0,32.0,-100.00,SW,219,2.0,6.0,97,0.00,,,0.03,0.000000,,2014-04-17 06:42:00,
2014-04-17 00:51:00,33.0,32.0,-100.00,South,190,18.0,24.0,98,0.00,,,0.02,0.000000,,2014-04-17 06:51:00,
2014-04-17 01:22:00,33.0,32.0,-100.00,South,190,18.0,24.0,98,0.00,,,0.02,0.000000,,2014-04-17 07:22:00,
2014-04-17 01:32:00,33.0,32.0,-100.00,South,190,18.0,24.0,98,0.00,,,0.02,0.000000,,2014-04-17 07:32:00,
2014-04-17 01:42:00,33.0,32.0,-100.00,South,190,18.0,24.0,98,0.00,,,0.02,0.000000,,2014-04-17 07:42:00,
2014-04-17 01:51:00,34.0,33.0,-100.00,South,175,16.0,28.0,97,0.00,,,0.01,0.000000,,2014-04-17 07:51:00,
2014-04-17 02:22:00,34.0,33.0,-100.00,South,175,16.0,28.0,97,0.00,,,0.01,0.000000,,2014-04-17 08:22:00,
2014-04-17 02:33:00,34.0,33.0,-100.00,South,175,16.0,28.0,97,0.00,,,0.01,0.000000,,2014-04-17 08:33:00,
2014-04-17 02:42:00,34.0,33.0,-100.00,South,175,16.0,28.0,97,0.00,,,0.01,0.000000,,2014-04-17 08:42:00,
2014-04-17 02:51:00,33.0,32.0,-100.00,South,174,16.0,22.0,96,0.00,,,0.00,0.000000,,2014-04-17 08:51:00,
2014-04-17 03:22:00,33.0,32.0,-100.00,South,174,16.0,22.0,96,0.00,,,0.00,0.000000,,2014-04-17 09:22:00,
2014-04-17 03:33:00,33.0,32.0,-100.00,South,174,16.0,22.0,96,0.00,,,0.00,0.000000,,2014-04-17 09:33:00,
2014-04-17 03:43:00,33.0,32.0,-100.00,South,174,16.0,22.0,96,0.00,,,0.00,0.000000,,2014-04-17 09:43:00,
2014-04-17 03:51:00,33.0,31.0,-100.00,South,174,15.0,20.0,93,0.00,,,0.00,0.000000,,2014-04-17 09:51:00,
2014-04-17 04:23:00,33.0,31.0,-100.00,South,174,15.0,20.0,93,0.00,,,0.00,0.000000,,2014-04-17 10:23:00,
2014-04-17 04:32:00,33.0,31.0,-100.00,South,174,15.0,20.0,93,0.00,,,0.00,0.000000,,2014-04-17 10:32:00,
2014-04-17 04:42:00,33.0,31.0,-100.00,South,174,15.0,20.0,93,0.00,,,0.00,0.000000,,2014-04-17 10:42:00,
2014-04-17 04:51:00,33.0,31.0,-100.00,South,175,15.0,21.0,92,0.00,,,0.00,0.000000,,2014-04-17 10:51:00,
2014-04-17 05:22:00,33.0,31.0,-100.00,South,175,15.0,21.0,92,0.00,,,0.00,0.000000,,2014-04-17 11:22:00,
2014-04-17 05:33:00,33.0,31.0,-100.00,South,175,15.0,21.0,92,0.00,,,0.00,0.000000,,2014-04-17 11:33:00,
2014-04-17 05:42:00,33.0,31.0,-100.00,South,175,15.0,21.0,92,0.00,,,0.00,0.000000,,2014-04-17 11:42:00,
2014-04-17 05:51:00,33.0,31.0,-100.00,South,169,10.0,18.0,92,0.00,,,0.00,0.000000,,2014-04-17 11:51:00,
2014-04-17 06:22:00,33.0,31.0,-100.00,South,169,10.0,18.0,92,0.00,,,0.00,0.000000,,2014-04-17 12:22:00,
2014-04-17 06:32:00,33.0,31.0,-100.00,South,169,10.0,18.0,92,0.00,,,0.00,0.000000,,2014-04-17 12:32:00,
2014-04-17 06:42:00,33.0,31.0,-100.00,South,169,10.0,18.0,92,0.00,,,0.00,0.000000,,2014-04-17 12:42:00,
2014-04-17 06:51:00,32.0,30.0,-100.00,SSE,165,13.0,19.0,93,0.00,,,0.00,7.000000,,2014-04-17 12:51:00,
2014-04-17 07:22:00,32.0,30.0,-100.00,SSE,165,13.0,19.0,93,0.00,,,0.00,7.000000,,2014-04-17 13:22:00,
2014-04-17 07:32:00,32.0,30.0,-100.00,SSE,165,13.0,19.0,93,0.00,,,0.00,7.000000,,2014-04-17 13:32:00,
2014-04-17 07:42:00,32.0,30.0,-100.00,SSE,165,13.0,19.0,93,0.00,,,0.00,7.000000,,2014-04-17 13:42:00,
2014-04-17 07:51:00,35.0,33.0,-100.00,South,174,12.0,19.0,91,0.00,,,0.00,80.000000,,2014-04-17 13:51:00,
2014-04-17 08:22:00,35.0,33.0,-100.00,South,174,12.0,19.0,91,0.00,,,0.00,80.000000,,2014-04-17 14:22:00,
2014-04-17 08:32:00,35.0,33.0,-100.00,South,174,12.0,19.0,91,0.00,,,0.00,80.000000,,2014-04-17 14:32:00,
2014-04-17 08:42:00,35.0,33.0,-100.00,South,174,12.0,19.0,91,0.00,,,0.00,80.000000,,2014-04-17 14:42:00,
2014-04-17 08:51:00,37.0,34.0,-100.00,South,183,13.0,19.0,90,0.02,,,0.02,223.000000,,2014-04-17 14:51:00,
2014-04-17 09:22:00,37.0,34.0,-100.00,South,183,13.0,19.0,90,0.02,,,0.02,223.000000,,2014-04-17 15:22:00,
2014-04-17 09:34:00,37.0,34.0,-100.00,South,183,13.0,19.0,90,0.02,,,0.02,223.000000,,2014-04-17 15:34:00,
2014-04-17 09:44:00,37.0,34.0,-100.00,South,183,13.0,19.0,90,0.02,,,0.02,223.000000,,2014-04-17 15:44:00,
2014-04-17 09:51:00,42.0,35.0,-100.00,SSW,196,15.0,26.0,75,0.02,,,0.04,543.000000,,2014-04-17 15:51:00,
2014-04-17 10:23:00,42.0,35.0,-100.00,SSW,196,15.0,26.0,75,0.02,,,0.04,543.000000,,2014-04-17 16:23:00,
2014-04-17 10:33:00,42.0,35.0,-100.00,SSW,196,15.0,26.0,75,0.02,,,0.04,543.000000,,2014-04-17 16:33:00,
2014-04-17 10:45:00,42.0,35.0,-100.00,SSW,196,15.0,26.0,75,0.02,,,0.04,543.000000,,2014-04-17 16:45:00,
2014-04-17 10:51:00,46.0,35.0,-100.00,South,185,11.0,19.0,66,0.00,,,0.04,766.000000,,2014-04-17 16:51:00,
2014-04-17 11:22:00,46.0,35.0,-100.00,South,185,11.0,19.0,66,0.00,,,0.04,766.000000,,2014-04-17 17:22:00,
2014-04-17 11:33:00,46.0,35.0,-100.00,South,185,11.0,19.0,66,0.00,,,0.04,766.000000,,2014-04-17 17:33:00,
2014-04-17 11:42:00,46.0,35.0,-100.00,South,185,11.0,19.0,66,0.00,,,0.04,766.000000,,2014-04-17 17:42:00,
2014-04-17 11:51:00,50.0,34.0,-100.00,SSW,192,9.0,17.0,55,0.00,,,0.04,896.000000,,2014-04-17 17:51:00,
2014-04-17 12:22:00,50.0,34.0,-100.00,SSW,192,9.0,17.0,55,0.00,,,0.04,896.000000,,2014-04-17 18:22:00,
2014-04-17 12:32:00,50.0,34.0,-100.00,SSW,192,9.0,17.0,55,0.00,,,0.04,896.000000,,2014-04-17 18:32:00,
2014-04-17 12:43:00,50.0,34.0,-100.00,SSW,192,9.0,17.0,55,0.00,,,0.04,896.000000,,2014-04-17 18:43:00,
2014-04-17 12:51:00,55.0,31.0,-100.00,South,189,5.0,16.0,40,0.00,,,0.04,959.000000,,2014-04-17 18:51:00,
2014-04-17 13:22:00,55.0,31.0,-100.00,South,189,5.0,16.0,40,0.00,,,0.04,959.000000,,2014-04-17 19:22:00,
2014-04-17 13:32:00,55.0,31.0,-100.00,South,189,5.0,16.0,40,0.00,,,0.04,959.000000,,2014-04-17 19:32:00,
2014-04-17 13:42:00,55.0,31.0,-100.00,South,189,5.0,16.0,40,0.00,,,0.04,959.000000,,2014-04-17 19:42:00,
2014-04-17 13:51:00,57.0,24.0,-100.00,SSW,212,8.0,19.0,28,0.00,,,0.04,980.000000,,2014-04-17 19:51:00,
2014-04-17 14:22:00,57.0,24.0,-100.00,SSW,212,8.0,19.0,28,0.00,,,0.04,980.000000,,2014-04-17 20:22:00,
2014-04-17 14:32:00,57.0,24.0,-100.00,SSW,212,8.0,19.0,28,0.00,,,0.04,980.000000,,2014-04-17 20:32:00,
2014-04-17 14:42:00,57.0,24.0,-100.00,SSW,212,8.0,19.0,28,0.00,,,0.04,980.000000,,2014-04-17 20:42:00,
2014-04-17 14:51:00,59.0,24.0,-100.00,SSW,205,11.0,21.0,26,0.00,,,0.04,922.000000,,2014-04-17 20:51:00,
2014-04-17 15:22:00,59.0,24.0,-100.00,SSW,205,11.0,21.0,26,0.00,,,0.04,922.000000,,2014-04-17 21:22:00,
2014-04-17 15:33:00,59.0,24.0,-100.00,SSW,205,11.0,21.0,26,0.00,,,0.04,922.000000,,2014-04-17 21:33:00,
2014-04-17 15:43:00,59.0,24.0,-100.00,SSW,205,11.0,21.0,26,0.00,,,0.04,922.000000,,2014-04-17 21:43:00,
2014-04-17 15:51:00,60.0,23.0,-100.00,SSW,203,8.0,24.0,24,0.00,,,0.04,760.000000,,2014-04-17 21:51:00,
2014-04-17 16:23:00,60.0,23.0,-100.00,SSW,203,8.0,24.0,24,0.00,,,0.04,760.000000,,2014-04-17 22:23:00,
2014-04-17 16:33:00,60.0,23.0,-100.00,SSW,203,8.0,24.0,24,0.00,,,0.04,760.000000,,2014-04-17 22:33:00,
2014-04-17 16:43:00,60.0,23.0,-100.00,SSW,203,8.0,24.0,24,0.00,,,0.04,760.000000,,2014-04-17 22:43:00,
2014-04-17 16:51:00,62.0,19.0,-100.00,West,266,8.0,22.0,19,0.00,,,0.04,633.000000,,2014-04-17 22:51:00,
2014-04-17 17:22:00,62.0,19.0,-100.00,West,266,8.0,22.0,19,0.00,,,0.04,633.000000,,2014-04-17 23:22:00,
2014-04-17 17:33:00,62.0,19.0,-100.00,West,266,8.0,22.0,19,0.00,,,0.04,633.000000,,2014-04-17 23:33:00,
2014-04-17 17:43:00,62.0,19.0,-100.00,West,266,8.0,22.0,19,0.00,,,0.04,633.000000,,2014-04-17 23:43:00,
2014-04-17 17:51:00,62.0,18.0,-100.00,WSW,244,4.0,18.0,18,0.00,,,0.04,418.000000,,2014-04-17 23:51:00,
2014-04-17 18:22:00,62.0,18.0,-100.00,WSW,244,4.0,18.0,18,0.00,,,0.04,418.000000,,2014-04-18 00:22:00,
2014-04-17 18:32:00,62.0,18.0,-100.00,WSW,244,4.0,18.0,18,0.00,,,0.04,418.000000,,2014-04-18 00:32:00,
2014-04-17 18:42:00,62.0,18.0,-100.00,WSW,244,4.0,18.0,18,0.00,,,0.04,418.000000,,2014-04-18 00:42:00,
2014-04-17 18:51:00,61.0,18.0,-100.00,WSW,245,7.0,18.0,19,0.00,,,0.04,252.000000,,2014-04-18 00:51:00,
2014-04-17 19:22:00,61.0,18.0,-100.00,WSW,245,7.0,18.0,19,0.00,,,0.04,252.000000,,2014-04-18 01:22:00,
2014-04-17 19:32:00,61.0,18.0,-100.00,WSW,245,7.0,18.0,19,0.00,,,0.04,252.000000,,2014-04-18 01:32:00,
2014-04-17 19:42:00,61.0,18.0,-100.00,WSW,245,7.0,18.0,19,0.00,,,0.04,252.000000,,2014-04-18 01:42:00,
2014-04-17 20:22:00,56.0,21.0,-100.00,South,176,3.0,10.0,25,0.00,,,0.04,36.000000,,2014-04-18 02:22:00,
2014-04-17 20:32:00,56.0,21.0,-100.00,South,176,3.0,10.0,25,0.00,,,0.04,36.000000,,2014-04-18 02:32:00,
2014-04-17 20:42:00,56.0,21.0,-100.00,South,176,3.0,10.0,25,0.00,,,0.04,36.000000,,2014-04-18 02:42:00,
2014-04-17 20:51:00,50.0,22.0,-100.00,SSE,167,5.0,9.0,33,0.00,,,0.04,0.000000,,2014-04-18 02:51:00,
2014-04-17 21:22:00,50.0,22.0,-100.00,SSE,167,5.0,9.0,33,0.00,,,0.04,0.000000,,2014-04-18 03:22:00,
2014-04-17 21:33:00,50.0,22.0,-100.00,SSE,167,5.0,9.0,33,0.00,,,0.04,0.000000,,2014-04-18 03:33:00,
2014-04-17 21:43:00,50.0,22.0,-100.00,SSE,167,5.0,9.0,33,0.00,,,0.04,0.000000,,2014-04-18 03:43:00,
2014-04-17 21:51:00,50.0,33.0,-100.00,SSE,159,11.0,16.0,52,0.00,,,0.04,0.000000,,2014-04-18 03:51:00,
2014-04-17 22:23:00,50.0,33.0,-100.00,SSE,159,11.0,16.0,52,0.00,,,0.04,0.000000,,2014-04-18 04:23:00,
2014-04-17 22:33:00,50.0,33.0,-100.00,SSE,159,11.0,16.0,52,0.00,,,0.04,0.000000,,2014-04-18 04:33:00,
2014-04-17 22:43:00,50.0,33.0,-100.00,SSE,159,11.0,16.0,52,0.00,,,0.04,0.000000,,2014-04-18 04:43:00,